Time;durP1;ratioP1;P1;durP2;ratioP2;P2;SDS_P1;SDS_P2;PMS_P1;PMS_P2;Temp;Humidity;BMP_temperature;BMP_pressure;BME280_temperature;BME280_humidity;BME280_pressure;Samples;Min_cycle;Max_cycle;Signal;HPM_P1;HPM_P2
2022/10/24 00:01:47;;;;;;;14.40;5.57;;;16.40;99.90;;;16.59;97.34;100072.91;4898608;29;20051;-70
2022/10/24 00:04:15;;;;;;;13.95;5.55;;;16.40;99.90;;;16.49;97.55;100050.19;4898446;29;20051;-70
2022/10/24 00:06:44;;;;;;;14.05;6.38;;;16.40;99.90;;;16.72;97.54;100096.38;4898458;29;20055;-69
2022/10/24 00:09:12;;;;;;;16.67;6.10;;;16.50;99.90;;;16.82;97.43;100078.16;4898504;29;20067;-70
2022/10/24 00:11:43;;;;;;;15.75;7.20;;;16.60;99.90;;;16.98;96.77;100087.25;4898321;29;20044;-71
2022/10/24 00:14:11;;;;;;;;;;;16.80;99.90;;;17.10;96.46;100068.88;4898895;29;20049;-71
2022/10/24 00:16:39;;;;;;;14.90;6.10;;;16.90;99.90;;;17.20;95.82;100057.78;4897345;29;19923;-70
2022/10/24 00:19:07;;;;;;;12.70;6.15;;;17.00;99.90;;;17.30;94.85;100072.47;4898252;29;20044;-69
2022/10/24 00:21:35;;;;;;;11.25;5.72;;;17.10;99.90;;;17.30;94.79;100064.47;4898289;29;20044;-69
2022/10/24 00:24:05;;;;;;;18.77;6.03;;;17.10;99.90;;;17.37;94.52;100065.91;4898277;29;20087;-70
2022/10/24 00:26:34;;;;;;;11.38;5.47;;;17.10;99.90;;;17.43;93.72;100095.94;4898180;29;20439;-70
2022/10/24 00:29:04;;;;;;;14.50;5.70;;;17.20;99.90;;;17.21;93.62;100020.28;4897240;29;20052;-70
2022/10/24 00:31:33;;;;;;;12.40;5.55;;;17.20;99.90;;;17.55;92.76;100059.78;4897199;29;20056;-70
2022/10/24 00:34:02;;;;;;;18.17;6.18;;;17.30;99.90;;;17.68;91.96;100060.94;4898426;29;20049;-70
2022/10/24 00:36:30;;;;;;;11.02;6.10;;;17.40;99.90;;;17.48;91.37;100024.41;4898629;29;20044;-70
2022/10/24 00:38:59;;;;;;;11.70;5.85;;;17.50;99.90;;;17.59;91.30;100032.84;4898220;29;20044;-70
2022/10/24 00:41:32;;;;;;;13.52;5.47;;;17.50;99.90;;;17.82;90.80;100051.34;4897972;29;20056;-70
2022/10/24 00:44:22;;;;;;;12.55;5.97;;;17.60;99.90;;;17.82;90.05;100050.47;4897733;29;20076;-71
2022/10/24 00:46:55;;;;;;;13.10;5.73;;;17.60;99.90;;;17.67;89.91;100019.94;4897957;29;20048;-70
2022/10/24 00:49:29;;;;;;;13.93;5.20;;;17.60;99.90;;;17.80;88.84;100045.19;4898207;29;20053;-70
2022/10/24 00:52:04;;;;;;;15.45;5.20;;;17.70;99.90;;;17.90;88.45;100041.13;4897965;29;20053;-69
2022/10/24 00:54:32;;;;;;;11.43;4.93;;;17.70;99.90;;;17.78;87.69;100003.41;4896951;29;20059;-70
2022/10/24 00:57:06;;;;;;;12.98;4.95;;;17.70;99.90;;;18.04;87.33;100046.69;4896841;29;20044;-70
2022/10/24 00:59:40;;;;;;;20.48;5.53;;;17.70;99.90;;;18.05;86.23;100034.19;4897722;29;20514;-70
2022/10/24 01:02:08;;;;;;;15.07;5.32;;;17.80;99.90;;;18.08;85.64;100022.47;4897844;29;20040;-69
2022/10/24 01:04:37;;;;;;;9.82;4.55;;;17.90;99.90;;;18.06;85.06;100033.22;4897729;29;20048;-70
2022/10/24 01:07:22;;;;;;;12.98;5.38;;;17.90;99.90;;;18.13;84.17;100042.72;4897750;29;20052;-69
2022/10/24 01:10:07;;;;;;;11.70;5.03;;;17.90;99.90;;;18.01;83.98;100005.84;4897801;29;20053;-69
2022/10/24 01:12:51;;;;;;;7.10;3.72;;;18.00;99.90;;;18.17;83.53;100035.41;4897825;29;20049;-70
2022/10/24 01:15:28;;;;;;;14.75;4.63;;;17.90;99.90;;;18.20;82.95;100037.91;4897998;29;20052;-70
2022/10/24 01:18:02;;;;;;;7.20;4.00;;;17.90;99.90;;;18.29;82.27;100030.28;4897715;29;20051;-70
2022/10/24 01:20:53;;;;;;;10.05;4.35;;;18.00;99.90;;;18.30;81.39;100074.88;4897719;29;20049;-70
2022/10/24 01:23:49;;;;;;;12.00;4.50;;;18.10;99.90;;;18.44;81.59;100031.41;4897657;29;20487;-69
2022/10/24 01:26:54;;;;;;;12.60;4.25;;;18.20;99.90;;;18.35;80.52;100032.69;4898182;29;20047;-71
2022/10/24 01:29:47;;;;;;;10.27;4.00;;;18.20;99.90;;;18.13;80.68;99985.63;4897575;29;20049;-70
2022/10/24 01:32:27;;;;;;;11.45;4.00;;;18.10;99.90;;;18.38;80.83;100029.00;4897616;29;20127;-70
2022/10/24 01:35:04;;;;;;;8.32;4.50;;;18.20;99.90;;;18.32;80.63;100030.16;4897937;29;20045;-70
2022/10/24 01:37:39;;;;;;;8.73;4.18;;;18.10;99.90;;;18.30;80.18;100026.69;4897511;29;20418;-70
2022/10/24 01:40:14;;;;;;;10.35;4.43;;;18.00;99.90;;;18.29;79.90;100014.22;4897626;29;20056;-70
2022/10/24 01:42:44;;;;;;;10.77;4.03;;;18.10;99.90;;;18.25;79.53;100009.13;4897856;29;20036;-69
2022/10/24 01:45:20;;;;;;;8.73;3.75;;;18.10;99.90;;;18.23;79.20;100014.56;4897516;29;20049;-70
2022/10/24 01:47:53;;;;;;;7.63;3.78;;;18.00;99.90;;;18.24;79.32;100028.78;4897567;29;20462;-70
2022/10/24 01:50:23;;;;;;;9.25;4.10;;;18.00;99.90;;;18.05;79.39;99988.69;4897516;29;20135;-70
2022/10/24 01:52:55;;;;;;;10.45;4.35;;;18.00;99.90;;;18.17;79.00;100009.50;4897490;29;20147;-70
2022/10/24 01:55:23;;;;;;;9.25;4.90;;;17.90;99.90;;;18.23;79.20;100001.19;4899102;29;20058;-69
2022/10/24 01:57:52;;;;;;;8.80;4.43;;;17.90;99.90;;;18.13;78.60;100013.28;4901019;29;20055;-70
2022/10/24 02:00:23;;;;;;;9.50;4.57;;;17.90;99.90;;;18.21;78.84;100012.91;4901031;29;20403;-70
2022/10/24 02:02:55;;;;;;;13.20;4.07;;;17.90;99.90;;;18.06;78.82;99963.66;4900817;29;20052;-71
2022/10/24 02:05:29;;;;;;;9.85;4.78;;;17.90;99.90;;;18.18;78.21;100005.00;4900769;29;20041;-70
2022/10/24 02:08:03;;;;;;;10.30;4.18;;;17.90;99.90;;;18.18;77.58;99989.81;4901250;29;20139;-70
2022/10/24 02:10:38;;;;;;;10.20;4.32;;;17.90;99.90;;;18.16;77.73;99980.13;4900698;29;20076;-70
2022/10/24 02:13:13;;;;;;;12.18;4.25;;;17.90;99.90;;;18.18;77.35;99988.94;4899618;29;20491;-69
2022/10/24 02:15:49;;;;;;;10.77;4.50;;;17.90;99.90;;;18.16;77.59;99978.31;4899599;29;20146;-70
2022/10/24 02:18:17;;;;;;;9.70;4.45;;;17.90;99.90;;;17.80;77.08;99938.19;4900428;29;20070;-70
2022/10/24 02:20:55;;;;;;;10.48;4.80;;;17.80;99.90;;;18.19;77.07;99999.59;4900490;29;20047;-69
2022/10/24 02:23:30;;;;;;;9.75;4.35;;;17.90;99.90;;;18.11;77.13;99988.41;4900780;29;20509;-71
2022/10/24 02:26:02;;;;;;;12.48;4.30;;;17.90;99.90;;;17.93;76.81;99944.66;4900470;29;20056;-71
2022/10/24 02:28:35;;;;;;;11.20;5.00;;;17.80;99.90;;;18.19;77.14;99996.91;4900382;29;20514;-70
2022/10/24 02:31:11;;;;;;;16.42;4.90;;;17.90;99.90;;;18.21;76.73;99992.34;4900296;29;20048;-70
2022/10/24 02:33:42;;;;;;;10.57;4.65;;;17.90;99.90;;;18.17;76.53;99990.78;4899290;29;20049;-71
2022/10/24 02:36:14;;;;;;;10.07;4.28;;;18.00;99.90;;;17.91;76.26;99972.44;4900194;29;20495;-70
2022/10/24 02:38:46;;;;;;;8.95;4.05;;;18.00;99.90;;;18.17;76.14;99988.09;4898866;29;20076;-69
2022/10/24 02:41:20;;;;;;;11.77;4.55;;;17.90;99.90;;;18.12;76.24;99994.63;4900455;29;20049;-70
2022/10/24 02:43:51;;;;;;;10.82;4.18;;;17.90;99.90;;;18.02;76.33;99996.88;4900365;29;20499;-70
2022/10/24 02:46:23;;;;;;;10.45;4.53;;;17.90;99.90;;;18.10;76.50;100008.06;4900227;29;20140;-70
2022/10/24 02:48:59;;;;;;;9.43;4.40;;;17.80;99.90;;;18.11;76.46;100009.81;4900083;29;20140;-70
2022/10/24 02:51:32;;;;;;;13.23;4.35;;;17.80;99.90;;;18.02;76.51;100056.59;4900237;29;20045;-70
2022/10/24 02:54:02;;;;;;;7.47;4.15;;;17.80;99.90;;;18.08;76.52;99988.53;4900434;29;20051;-69
2022/10/24 02:56:31;;;;;;;12.00;4.25;;;17.80;99.90;;;18.06;76.51;99971.66;4900391;29;20047;-70
2022/10/24 02:58:59;;;;;;;6.43;3.88;;;17.80;99.90;;;17.79;76.31;99976.56;4899715;29;20048;-69
2022/10/24 03:01:29;;;;;;;11.93;4.38;;;17.80;99.90;;;17.97;76.04;99980.16;4900023;29;20063;-70
2022/10/24 03:03:57;;;;;;;8.37;4.13;;;17.70;99.90;;;17.95;75.45;99987.41;4899686;29;20060;-70
2022/10/24 03:06:26;;;;;;;13.82;4.35;;;17.70;99.90;;;17.93;75.32;99968.75;4899605;29;20295;-69
2022/10/24 03:08:54;;;;;;;10.68;4.47;;;17.70;99.90;;;17.97;75.27;99969.47;4899604;29;20053;-69
2022/10/24 03:11:22;;;;;;;11.07;4.05;;;17.70;99.90;;;17.95;75.25;99976.69;4898302;29;20072;-70
2022/10/24 03:13:51;;;;;;;11.10;4.22;;;17.70;99.90;;;17.90;75.09;100001.00;4899463;29;20562;-70
2022/10/24 03:16:19;;;;;;;8.52;3.90;;;17.60;99.90;;;17.23;74.66;99878.59;4899392;29;20048;-70
2022/10/24 03:18:49;;;;;;;15.25;4.55;;;17.60;99.90;;;17.77;74.49;99989.16;4899258;29;20495;-69
2022/10/24 03:21:17;;;;;;;13.57;4.45;;;17.60;99.90;;;17.32;73.64;99918.25;4899388;29;20048;-70
2022/10/24 03:23:46;;;;;;;11.82;4.30;;;17.50;99.90;;;17.71;73.22;99959.16;4899887;29;20120;-70
2022/10/24 03:26:14;;;;;;;10.05;4.57;;;17.50;99.90;;;17.69;73.25;99972.59;4899285;29;20048;-69
2022/10/24 03:28:42;;;;;;;10.20;4.00;;;17.40;99.90;;;17.79;72.99;99981.03;4899494;29;20048;-69
2022/10/24 03:31:11;;;;;;;15.77;4.43;;;17.50;99.90;;;17.66;72.67;99975.44;4899471;29;20068;-70
2022/10/24 03:33:39;;;;;;;12.30;4.68;;;17.40;99.90;;;17.66;72.72;99970.06;4899148;29;20421;-69
2022/10/24 03:36:09;;;;;;;16.23;4.68;;;17.40;99.90;;;17.76;72.46;99989.22;4899386;29;20053;-70
2022/10/24 03:38:38;;;;;;;13.43;4.28;;;17.50;99.90;;;17.73;71.63;100021.50;4899303;29;20052;-69
2022/10/24 03:41:06;;;;;;;12.15;4.80;;;17.50;99.90;;;17.83;72.09;99979.97;4899045;29;20064;-71
2022/10/24 03:43:34;;;;;;;15.40;4.82;;;17.50;99.90;;;17.91;71.86;100002.75;4898991;29;20048;-70
2022/10/24 03:46:03;;;;;;;9.43;4.20;;;17.60;99.90;;;17.84;72.53;100004.00;4899188;29;20044;-69
2022/10/24 03:48:31;;;;;;;15.50;4.38;;;17.60;99.90;;;17.82;72.12;99981.78;4897818;29;20139;-69
2022/10/24 03:50:59;;;;;;;11.00;4.38;;;17.60;99.90;;;17.90;72.46;99997.47;4898806;29;20045;-69
2022/10/24 03:53:29;;;;;;;12.45;4.40;;;17.60;99.90;;;17.62;72.57;99938.19;4898751;29;20517;-69
2022/10/24 03:55:59;;;;;;;16.77;4.53;;;17.60;99.90;;;17.93;72.77;99997.31;4899323;29;20060;-71
2022/10/24 03:58:27;;;;;;;12.27;4.10;;;17.60;99.90;;;17.89;72.54;99975.19;4898944;29;20292;-70
2022/10/24 04:00:57;;;;;;;10.02;4.18;;;17.60;99.90;;;17.93;72.67;99975.91;4881768;29;20545;-69
2022/10/24 04:03:27;;;;;;;13.35;4.10;;;17.70;99.90;;;17.91;72.83;99965.28;4898714;29;20100;-70
2022/10/24 04:05:55;;;;;;;19.52;4.45;;;17.70;99.90;;;17.84;72.70;99961.19;4898552;29;20503;-69
2022/10/24 04:08:24;;;;;;;17.50;4.32;;;17.60;99.90;;;17.84;72.91;99968.34;4899061;29;20066;-71
2022/10/24 04:10:53;;;;;;;14.07;4.32;;;17.60;99.90;;;17.92;73.45;99971.50;4899014;29;20044;-70
2022/10/24 04:13:21;;;;;;;13.88;4.63;;;17.60;99.90;;;17.91;73.35;99981.34;4897505;29;20473;-69
2022/10/24 04:15:50;;;;;;;12.05;4.47;;;17.60;99.90;;;17.91;73.39;99962.59;4898349;29;20036;-70
2022/10/24 04:18:18;;;;;;;13.98;4.25;;;17.60;99.90;;;17.91;73.77;99967.09;4897774;29;20491;-69
2022/10/24 04:20:46;;;;;;;16.50;4.97;;;17.60;99.90;;;17.55;73.86;99904.69;4898506;29;20044;-69
2022/10/24 04:23:15;;;;;;;11.05;4.03;;;17.60;99.90;;;17.83;74.10;99975.47;4898301;29;20055;-70
2022/10/24 04:25:44;;;;;;;13.23;4.47;;;17.60;99.90;;;17.07;74.00;99825.84;4898286;29;20068;-69
2022/10/24 04:28:13;;;;;;;11.80;3.95;;;17.50;99.90;;;17.84;74.58;99962.97;4898473;29;20048;-70
2022/10/24 04:30:42;;;;;;;13.57;4.40;;;17.50;99.90;;;17.77;74.50;99945.47;4898448;29;20079;-70
2022/10/24 04:33:15;;;;;;;11.65;4.05;;;17.50;99.90;;;17.79;74.57;99997.09;4898186;29;20048;-70
2022/10/24 04:35:48;;;;;;;14.50;5.20;;;17.50;99.90;;;17.75;74.53;99964.28;4898339;29;20040;-69
2022/10/24 04:38:17;;;;;;;13.55;4.03;;;17.50;99.90;;;17.74;74.21;99980.41;4898096;29;20044;-70
2022/10/24 04:40:47;;;;;;;11.52;4.35;;;17.50;99.90;;;17.74;74.02;99975.06;4897886;29;20048;-70
2022/10/24 04:43:17;;;;;;;14.18;4.85;;;17.50;99.90;;;17.80;73.96;99990.81;4898292;29;20112;-69
2022/10/24 04:45:46;;;;;;;13.25;4.05;;;17.50;99.90;;;17.88;74.05;99960.09;4898107;29;20443;-69
2022/10/24 04:48:15;;;;;;;16.25;4.57;;;17.60;99.90;;;17.09;73.69;99812.44;4897837;29;20063;-69
2022/10/24 04:50:46;;;;;;;12.48;3.92;;;17.60;99.90;;;17.90;74.21;99935.94;4897880;29;20055;-70
2022/10/24 04:53:15;;;;;;;15.85;4.25;;;17.60;99.90;;;17.83;74.01;99954.06;4898025;29;20070;-72
2022/10/24 04:55:44;;;;;;;14.95;4.47;;;17.60;99.90;;;17.75;73.96;99929.50;4898425;29;20071;-70
2022/10/24 04:58:13;;;;;;;17.13;4.53;;;17.60;99.90;;;17.84;73.64;99918.38;4896838;29;20490;-70
2022/10/24 05:00:45;;;;;;;11.52;4.43;;;17.60;99.90;;;17.81;73.80;99952.41;4897617;29;20064;-69
2022/10/24 05:03:18;;;;;;;10.68;3.85;;;17.60;99.90;;;17.81;74.01;99936.34;4897872;29;20049;-70
2022/10/24 05:05:47;;;;;;;13.68;4.28;;;17.50;99.90;;;17.58;74.09;99932.13;4896878;29;20059;-70
2022/10/24 05:08:15;;;;;;;19.50;4.13;;;17.50;99.90;;;17.66;74.12;99929.97;4897678;29;20048;-69
2022/10/24 05:10:44;;;;;;;17.20;4.40;;;17.50;99.90;;;17.68;73.87;99929.88;4898276;29;20044;-69
2022/10/24 05:13:12;;;;;;;16.10;3.90;;;17.50;99.90;;;17.63;73.99;99926.56;4897685;29;20091;-69
2022/10/24 05:15:43;;;;;;;11.80;3.90;;;17.50;99.90;;;17.76;74.03;99946.44;4898291;29;20064;-70
2022/10/24 05:18:12;;;;;;;17.05;4.05;;;17.50;99.90;;;17.74;74.39;99983.09;4897991;29;20052;-70
2022/10/24 05:20:40;;;;;;;14.60;4.63;;;17.50;99.90;;;17.50;74.43;99877.31;4897822;29;20047;-69
2022/10/24 05:23:13;;;;;;;14.80;4.15;;;17.40;99.90;;;17.51;74.37;99957.44;4898230;29;20045;-69
2022/10/24 05:25:42;;;;;;;10.25;4.55;;;17.40;99.90;;;17.71;74.60;99953.81;4896446;29;20494;-70
2022/10/24 05:28:10;;;;;;;8.35;3.90;;;17.40;99.90;;;17.71;74.66;99965.38;4896635;29;20566;-69
2022/10/24 05:30:38;;;;;;;15.13;4.60;;;17.40;99.90;;;17.61;74.78;99948.03;4901348;29;20044;-70
2022/10/24 05:33:08;;;;;;;12.93;4.65;;;17.40;99.90;;;17.67;75.03;99954.91;4901259;29;20047;-70
2022/10/24 05:35:37;;;;;;;9.80;3.87;;;17.40;99.90;;;17.64;75.43;99947.88;4901585;29;20047;-69
2022/10/24 05:38:05;;;;;;;17.38;4.32;;;17.40;99.90;;;17.59;75.47;99971.31;4901427;29;20081;-69
2022/10/24 05:40:33;;;;;;;12.25;4.35;;;17.30;99.90;;;17.64;75.94;99989.81;4901058;29;20032;-70
2022/10/24 05:43:02;;;;;;;11.73;4.35;;;17.40;99.90;;;17.64;75.88;99966.59;4901035;29;20063;-70
2022/10/24 05:45:30;;;;;;;10.10;4.03;;;17.40;99.90;;;17.61;76.02;99989.97;4900075;29;20559;-70
2022/10/24 05:47:58;;;;;;;13.93;4.05;;;17.30;99.90;;;17.56;76.29;99978.59;4901032;29;20045;-70
2022/10/24 05:50:28;;;;;;;16.92;4.43;;;17.40;99.90;;;17.63;76.15;99959.53;4900905;29;20052;-69
2022/10/24 05:52:57;;;;;;;13.85;4.07;;;17.40;99.90;;;17.61;76.22;99955.19;4901012;29;20440;-69
2022/10/24 05:55:25;;;;;;;13.73;4.18;;;17.30;99.90;;;17.64;76.20;99960.38;4901158;29;20037;-69
2022/10/24 05:57:54;;;;;;;14.98;5.03;;;17.30;99.90;;;17.58;76.32;99949.97;4901169;29;20418;-71
2022/10/24 06:00:23;;;;;;;12.55;4.95;;;17.40;99.90;;;17.57;76.59;99977.66;4900657;29;20384;-70
2022/10/24 06:02:51;;;;;;;12.57;4.88;;;17.30;99.90;;;15.82;76.48;99700.00;4900946;29;20055;-69
2022/10/24 06:05:20;;;;;;;17.20;4.40;;;17.30;99.90;;;17.28;76.57;99920.19;4900600;29;20568;-69
2022/10/24 06:07:49;;;;;;;10.35;4.22;;;17.30;99.90;;;17.53;76.92;99974.28;4900549;29;20047;-70
2022/10/24 06:10:18;;;;;;;10.88;4.65;;;17.30;99.90;;;17.54;76.93;99970.66;4900596;29;20046;-70
2022/10/24 06:12:46;;;;;;;14.88;4.68;;;17.30;99.90;;;17.56;77.04;99967.91;4900731;29;20041;-70
2022/10/24 06:15:15;;;;;;;12.43;4.45;;;17.30;99.90;;;17.55;77.25;99982.22;4900552;29;20068;-70
2022/10/24 06:17:43;;;;;;;14.05;5.00;;;17.30;99.90;;;17.49;77.07;100001.22;4900973;29;20045;-70
2022/10/24 06:20:12;;;;;;;10.18;4.43;;;17.30;99.90;;;17.54;77.00;99964.44;4900368;29;20384;-70
2022/10/24 06:22:40;;;;;;;13.85;4.78;;;17.30;99.90;;;17.49;78.58;100004.78;4900857;29;20052;-70
2022/10/24 06:25:11;;;;;;;20.38;4.70;;;17.20;99.90;;;15.80;79.30;99708.06;4900642;29;20040;-70
2022/10/24 06:27:40;;;;;;;12.00;4.28;;;17.30;99.90;;;17.49;79.02;99998.56;4899360;29;20090;-70
2022/10/24 06:30:10;;;;;;;10.90;4.70;;;17.20;99.90;;;17.55;78.75;100009.84;4900249;29;20044;-70
2022/10/24 06:32:39;;;;;;;16.52;4.30;;;17.20;99.90;;;17.49;77.85;100009.25;4899280;29;20063;-70
2022/10/24 06:35:13;;;;;;;8.95;4.45;;;17.20;99.90;;;16.85;76.95;99899.94;4899200;29;20078;-70
2022/10/24 06:37:42;;;;;;;12.80;3.90;;;17.20;99.90;;;17.50;77.19;100001.16;4899248;29;20483;-70
2022/10/24 06:40:17;;;;;;;12.30;3.63;;;17.20;99.90;;;17.48;76.81;100056.50;4899957;29;20067;-70
2022/10/24 06:42:46;;;;;;;10.10;4.05;;;17.20;99.90;;;17.54;76.64;100037.50;4900402;29;20079;-68
2022/10/24 06:45:14;;;;;;;15.63;4.20;;;17.20;99.90;;;17.53;76.51;100005.50;4899694;29;20044;-69
2022/10/24 06:47:42;;;;;;;13.95;4.32;;;17.30;99.90;;;17.42;76.68;100005.94;4900175;29;20076;-68
2022/10/24 06:50:11;;;;;;;11.20;4.53;;;17.30;99.90;;;17.38;76.64;100014.19;4900473;29;20071;-68
2022/10/24 06:52:40;;;;;;;14.40;4.53;;;17.30;99.90;;;17.60;77.06;100072.00;4900188;29;20045;-68
2022/10/24 06:55:09;;;;;;;11.40;4.05;;;17.30;99.90;;;17.34;76.84;100021.50;4900079;29;20053;-67
2022/10/24 06:57:39;;;;;;;14.90;4.30;;;17.30;99.90;;;17.53;76.77;100067.00;4900069;29;20045;-68
2022/10/24 07:00:10;;;;;;;12.23;4.33;;;17.20;99.90;;;17.59;76.59;100075.63;4899483;29;20048;-68
2022/10/24 07:02:38;;;;;;;;;;;17.30;99.90;;;17.42;76.50;100061.25;4900174;29;20049;-69
2022/10/24 07:05:11;;;;;;;10.48;4.13;;;17.30;99.90;;;17.39;76.48;100064.03;4899725;29;19924;-68
2022/10/24 07:07:42;;;;;;;10.07;4.00;;;17.20;99.90;;;17.42;76.82;100083.47;4899819;29;20105;-70
2022/10/24 07:10:14;;;;;;;14.32;4.15;;;17.20;99.90;;;17.26;77.33;100054.84;4900246;29;20451;-71
2022/10/24 07:12:44;;;;;;;12.02;4.80;;;17.20;99.90;;;17.29;77.54;100066.25;4899008;29;20055;-70
2022/10/24 07:15:12;;;;;;;13.85;4.32;;;17.20;99.90;;;17.29;77.34;100071.59;4899865;29;20079;-68
2022/10/24 07:17:45;;;;;;;10.50;4.35;;;17.20;99.90;;;17.45;77.17;100087.84;4899794;29;20127;-68
2022/10/24 07:20:15;;;;;;;12.90;3.88;;;17.10;99.90;;;17.55;77.17;100126.63;4899467;29;20056;-68
2022/10/24 07:22:44;;;;;;;10.25;3.70;;;17.20;99.90;;;17.52;76.83;100119.59;4899233;29;20123;-68
2022/10/24 07:25:13;;;;;;;12.20;3.47;;;17.20;99.90;;;17.29;76.83;100113.50;4899297;29;20045;-68
2022/10/24 07:27:43;;;;;;;10.48;4.38;;;17.20;99.90;;;16.96;76.65;100089.09;4899281;29;20049;-68
2022/10/24 07:30:17;;;;;;;9.93;4.03;;;17.10;99.90;;;17.17;76.75;100097.06;4899795;29;20059;-67
2022/10/24 07:32:45;;;;;;;11.65;4.43;;;17.10;99.90;;;15.72;76.87;99838.19;4899738;29;20049;-68
2022/10/24 07:35:14;;;;;;;14.05;4.00;;;17.10;99.90;;;17.47;77.17;100144.78;4899675;29;20044;-68
2022/10/24 07:37:43;;;;;;;12.27;4.43;;;17.20;99.90;;;17.48;77.57;100141.19;4899074;29;20051;-66
2022/10/24 07:40:12;;;;;;;14.32;4.13;;;17.20;99.90;;;17.45;77.76;100146.66;4897813;29;20040;-68
2022/10/24 07:42:42;;;;;;;11.70;4.30;;;17.10;99.90;;;17.43;78.16;100154.75;4898959;29;20144;-67
2022/10/24 07:45:11;;;;;;;16.52;4.75;;;17.10;99.90;;;17.27;78.29;100142.09;4899228;29;20056;-68
2022/10/24 07:47:40;;;;;;;10.68;4.00;;;17.10;99.90;;;17.45;77.96;100135.97;4898873;29;20499;-68
2022/10/24 07:50:09;;;;;;;11.55;4.47;;;17.20;99.90;;;17.51;77.54;100163.34;4898825;29;20098;-68
2022/10/24 07:52:37;;;;;;;10.70;3.92;;;17.20;99.90;;;17.67;77.56;100144.81;4897663;29;20144;-68
2022/10/24 07:55:07;;;;;;;12.93;4.43;;;17.40;99.90;;;17.90;76.28;100174.06;4898674;29;20092;-68
2022/10/24 07:57:35;;;;;;;8.95;4.10;;;17.60;99.90;;;17.88;76.67;100189.31;4898689;29;20132;-68
2022/10/24 08:00:07;;;;;;;11.60;4.20;;;17.60;99.90;;;17.81;76.73;100186.03;4898443;29;20423;-66
2022/10/24 08:02:39;;;;;;;9.45;4.35;;;17.50;99.90;;;17.67;77.14;100184.94;4898620;29;20135;-67
2022/10/24 08:05:10;;;;;;;11.45;4.40;;;17.40;99.90;;;17.56;78.03;100192.53;4898573;29;20060;-67
2022/10/24 08:07:38;;;;;;;13.32;4.25;;;17.30;99.90;;;17.44;78.92;100196.56;4898836;29;20049;-65
2022/10/24 08:10:10;;;;;;;13.35;4.75;;;17.20;99.90;;;17.43;79.90;100180.59;4898490;29;20040;-67
2022/10/24 08:12:39;;;;;;;14.75;4.82;;;17.20;99.90;;;17.34;80.81;100183.69;4898816;29;20056;-67
2022/10/24 08:15:10;;;;;;;10.25;4.43;;;17.20;99.90;;;17.32;81.15;100205.16;4913248;29;20395;-65
2022/10/24 08:17:39;;;;;;;10.65;4.93;;;17.10;99.90;;;17.40;81.67;100205.66;4898707;29;20403;-68
2022/10/24 08:20:09;;;;;;;14.85;4.90;;;17.10;99.90;;;17.24;81.82;100220.63;4898614;29;20127;-68
2022/10/24 08:22:38;;;;;;;;;;;16.90;99.90;;;17.25;82.26;100210.81;4898943;29;20123;-68
2022/10/24 08:25:09;;;;;;;14.60;4.45;;;16.90;99.90;;;17.07;82.58;100212.47;4898227;29;19923;-68
2022/10/24 08:27:37;;;;;;;15.20;5.20;;;16.80;99.90;;;17.07;83.00;100221.31;4898841;29;20041;-68
2022/10/24 08:30:09;;;;;;;11.15;4.00;;;16.80;99.90;;;16.89;83.31;100203.38;4898216;29;20051;-69
2022/10/24 08:32:38;;;;;;;12.70;4.28;;;16.70;99.90;;;16.85;83.78;100216.94;4897206;29;20067;-69
2022/10/24 08:35:07;;;;;;;12.52;4.15;;;16.60;99.90;;;16.89;84.28;100237.25;4898173;29;20044;-70
2022/10/24 08:37:36;;;;;;;10.70;4.10;;;16.60;99.90;;;16.92;84.14;100237.09;4898648;29;20058;-66
2022/10/24 08:40:15;;;;;;;17.23;4.85;;;16.60;99.90;;;16.63;84.46;100192.00;4897136;29;20143;-67
2022/10/24 08:42:44;;;;;;;15.60;4.35;;;16.60;99.90;;;16.80;85.05;100238.47;4898004;29;20222;-67
2022/10/24 08:45:23;;;;;;;11.40;3.95;;;16.50;99.90;;;16.80;85.03;100253.66;4898207;29;20048;-67
2022/10/24 08:47:59;;;;;;;13.93;4.53;;;16.50;99.90;;;16.72;85.47;100223.69;4898285;29;20048;-65
2022/10/24 08:50:32;;;;;;;16.15;4.43;;;16.50;99.90;;;16.83;85.55;100257.06;4898299;29;20084;-67
2022/10/24 08:53:04;;;;;;;14.20;4.47;;;16.50;99.90;;;16.63;85.87;100216.03;4898207;29;20052;-68
2022/10/24 08:55:38;;;;;;;16.13;4.80;;;16.50;99.90;;;16.68;86.12;100230.09;4897944;29;20047;-67
2022/10/24 08:58:28;;;;;;;10.43;4.45;;;16.60;99.90;;;17.23;85.64;100276.84;4897901;29;20513;-67
2022/10/24 09:01:03;;;;;;;9.45;4.10;;;16.80;99.90;;;17.26;84.69;100277.59;4897847;29;20057;-67
2022/10/24 09:03:36;;;;;;;9.90;4.35;;;16.90;99.90;;;17.24;84.65;100271.44;4898372;29;20132;-67
2022/10/24 09:06:25;;;;;;;12.77;4.38;;;16.90;99.90;;;17.42;83.90;100262.63;4901045;29;20503;-67
2022/10/24 09:08:57;;;;;;;17.17;4.40;;;17.20;99.90;;;17.77;83.02;100283.44;4901796;29;20048;-67
2022/10/24 09:11:36;;;;;;;11.30;4.43;;;17.40;99.90;;;17.90;82.50;100278.44;4901989;29;20055;-68
2022/10/24 09:14:13;;;;;;;11.48;4.05;;;17.60;99.90;;;18.08;82.34;100300.84;4901513;29;20083;-68
2022/10/24 09:16:46;;;;;;;12.90;4.55;;;17.70;99.90;;;17.95;81.95;100295.13;4901517;29;20056;-67
2022/10/24 09:19:19;;;;;;;16.00;4.20;;;17.70;99.90;;;17.91;81.96;100296.22;4901633;29;20052;-67
2022/10/24 09:21:49;;;;;;;15.15;4.68;;;17.70;99.90;;;17.92;82.00;100295.28;4901425;29;20055;-66
2022/10/24 09:24:30;;;;;;;12.55;4.03;;;17.60;99.90;;;17.61;82.00;100282.38;4901431;29;20044;-67
2022/10/24 09:27:03;;;;;;;11.05;3.97;;;17.60;99.90;;;17.59;82.35;100278.00;4901512;29;20487;-65
2022/10/24 09:29:33;;;;;;;12.95;5.00;;;17.50;99.90;;;17.93;82.49;100300.56;4901361;29;20096;-65
2022/10/24 09:32:03;;;;;;;;;;;17.60;99.90;;;18.14;82.16;100314.81;4901769;29;20070;-65
2022/10/24 09:34:32;;;;;;;11.35;4.28;;;17.80;99.90;;;18.27;81.70;100316.03;4900393;29;20275;-64
2022/10/24 09:37:00;;;;;;;12.30;4.43;;;18.00;99.90;;;18.42;81.27;100325.16;4901501;29;20096;-67
2022/10/24 09:39:33;;;;;;;16.75;4.38;;;18.10;99.90;;;18.18;81.05;100300.34;4900219;29;20403;-67
2022/10/24 09:42:02;;;;;;;12.55;4.13;;;18.10;99.90;;;18.52;81.55;100329.22;4901142;29;20075;-68
2022/10/24 09:44:35;;;;;;;13.30;4.05;;;18.20;99.90;;;18.60;80.89;100325.22;4900065;29;20084;-69
2022/10/24 09:47:09;;;;;;;8.93;3.90;;;18.30;99.90;;;18.49;80.42;100332.88;4901115;29;20077;-68
2022/10/24 09:49:41;;;;;;;13.13;4.45;;;18.30;99.90;;;18.55;80.12;100342.44;4900993;29;20045;-68
2022/10/24 09:52:20;;;;;;;11.00;4.28;;;18.30;99.90;;;18.52;79.60;100338.13;4901282;29;20049;-67
2022/10/24 09:55:12;;;;;;;12.98;4.10;;;18.30;99.90;;;18.43;79.78;100348.34;4901161;29;20049;-68
2022/10/24 09:57:41;;;;;;;9.68;3.78;;;18.20;99.90;;;18.52;80.00;100364.03;4901312;29;20048;-67
2022/10/24 10:00:25;;;;;;;17.70;4.72;;;18.20;99.90;;;18.60;79.57;100367.25;4900982;29;20395;-67
2022/10/24 10:03:01;;;;;;;13.63;3.85;;;18.30;99.90;;;18.62;79.32;100344.78;4900799;29;20403;-68
2022/10/24 10:05:46;;;;;;;10.90;4.40;;;18.30;99.90;;;18.66;79.13;100372.31;4901056;29;20473;-65
2022/10/24 10:08:22;;;;;;;13.48;4.30;;;18.30;99.90;;;18.69;78.88;100375.72;4900049;29;20064;-66
2022/10/24 10:11:02;;;;;;;14.27;5.00;;;18.40;99.90;;;18.84;79.02;100382.19;4900547;29;20136;-64
2022/10/24 10:13:37;;;;;;;8.90;4.28;;;18.50;99.90;;;18.69;79.21;100378.41;4900356;29;20051;-65
2022/10/24 10:16:07;;;;;;;11.60;4.70;;;18.50;99.90;;;18.63;79.55;100389.41;4899731;29;20459;-66
2022/10/24 10:18:47;;;;;;;15.40;4.68;;;18.30;99.90;;;18.41;79.85;100353.75;4900816;29;20097;-67
2022/10/24 10:21:18;;;;;;;11.43;4.32;;;18.30;99.90;;;18.54;80.13;100368.34;4901094;29;20044;-67
2022/10/24 10:23:49;;;;;;;13.18;4.88;;;18.20;99.90;;;18.35;81.37;100391.50;4900441;29;20051;-67
2022/10/24 10:26:23;;;;;;;12.27;4.30;;;18.10;99.90;;;18.18;81.77;100396.72;4900418;29;20554;-66
2022/10/24 10:29:00;;;;;;;10.43;4.60;;;17.90;99.90;;;17.78;82.70;100367.25;4900371;29;20407;-66